sensor_id;sensor_type;location;lat;lon;timestamp;P1;durP1;ratioP1;P2;durP2;ratioP2
47251;SDS011;32991;51.374;11.586;2023-11-19T00:02:26;1.55;;;1.17;;
47251;SDS011;32991;51.374;11.586;2023-11-19T00:04:53;1.75;;;1.02;;
47251;SDS011;32991;51.374;11.586;2023-11-19T00:07:21;1.00;;;1.00;;
47251;SDS011;32991;51.374;11.586;2023-11-19T00:09:53;5.47;;;1.25;;
47251;SDS011;32991;51.374;11.586;2023-11-19T00:12:21;1.52;;;1.40;;
47251;SDS011;32991;51.374;11.586;2023-11-19T00:14:48;1.15;;;1.05;;
47251;SDS011;32991;51.374;11.586;2023-11-19T00:17:17;1.80;;;1.50;;
47251;SDS011;32991;51.374;11.586;2023-11-19T00:19:44;1.92;;;1.25;;
47251;SDS011;32991;51.374;11.586;2023-11-19T00:22:10;0.80;;;0.60;;
47251;SDS011;32991;51.374;11.586;2023-11-19T00:24:37;1.20;;;1.10;;
47251;SDS011;32991;51.374;11.586;2023-11-19T00:27:04;0.93;;;0.93;;
47251;SDS011;32991;51.374;11.586;2023-11-19T00:29:31;1.38;;;1.27;;
47251;SDS011;32991;51.374;11.586;2023-11-19T00:31:58;1.48;;;1.27;;
47251;SDS011;32991;51.374;11.586;2023-11-19T00:34:24;1.98;;;1.40;;
47251;SDS011;32991;51.374;11.586;2023-11-19T00:36:53;3.25;;;1.02;;
47251;SDS011;32991;51.374;11.586;2023-11-19T00:39:21;1.10;;;1.00;;
47251;SDS011;32991;51.374;11.586;2023-11-19T00:41:48;0.95;;;0.93;;
47251;SDS011;32991;51.374;11.586;2023-11-19T00:44:15;3.97;;;1.15;;
47251;SDS011;32991;51.374;11.586;2023-11-19T00:46:42;1.45;;;1.20;;
47251;SDS011;32991;51.374;11.586;2023-11-19T00:49:09;1.50;;;1.10;;
47251;SDS011;32991;51.374;11.586;2023-11-19T00:51:38;1.30;;;0.98;;
47251;SDS011;32991;51.374;11.586;2023-11-19T00:54:05;2.17;;;1.20;;
47251;SDS011;32991;51.374;11.586;2023-11-19T00:56:31;1.55;;;1.08;;
47251;SDS011;32991;51.374;11.586;2023-11-19T00:58:58;1.33;;;1.10;;
47251;SDS011;32991;51.374;11.586;2023-11-19T01:01:26;1.95;;;1.20;;
47251;SDS011;32991;51.374;11.586;2023-11-19T01:03:53;1.90;;;1.10;;
47251;SDS011;32991;51.374;11.586;2023-11-19T01:06:27;1.20;;;1.10;;
47251;SDS011;32991;51.374;11.586;2023-11-19T01:08:55;1.00;;;0.82;;
47251;SDS011;32991;51.374;11.586;2023-11-19T01:11:23;1.23;;;1.10;;
47251;SDS011;32991;51.374;11.586;2023-11-19T01:13:50;1.17;;;0.90;;
47251;SDS011;32991;51.374;11.586;2023-11-19T01:16:17;1.40;;;1.20;;
47251;SDS011;32991;51.374;11.586;2023-11-19T01:18:46;2.13;;;1.48;;
47251;SDS011;32991;51.374;11.586;2023-11-19T01:21:13;1.27;;;1.10;;
47251;SDS011;32991;51.374;11.586;2023-11-19T01:23:43;1.08;;;1.00;;
47251;SDS011;32991;51.374;11.586;2023-11-19T01:26:12;1.27;;;1.00;;
47251;SDS011;32991;51.374;11.586;2023-11-19T01:28:39;0.68;;;0.68;;
47251;SDS011;32991;51.374;11.586;2023-11-19T01:31:17;1.27;;;1.00;;
47251;SDS011;32991;51.374;11.586;2023-11-19T01:33:44;0.93;;;0.93;;
47251;SDS011;32991;51.374;11.586;2023-11-19T01:36:14;0.80;;;0.80;;
47251;SDS011;32991;51.374;11.586;2023-11-19T01:38:41;2.28;;;1.00;;
47251;SDS011;32991;51.374;11.586;2023-11-19T01:41:08;1.52;;;1.23;;
47251;SDS011;32991;51.374;11.586;2023-11-19T01:43:35;1.73;;;0.90;;
47251;SDS011;32991;51.374;11.586;2023-11-19T01:46:04;1.27;;;0.90;;
47251;SDS011;32991;51.374;11.586;2023-11-19T01:48:35;1.00;;;0.90;;
47251;SDS011;32991;51.374;11.586;2023-11-19T01:51:03;0.90;;;0.63;;
47251;SDS011;32991;51.374;11.586;2023-11-19T01:53:30;1.55;;;0.85;;
47251;SDS011;32991;51.374;11.586;2023-11-19T01:55:58;0.82;;;0.80;;
47251;SDS011;32991;51.374;11.586;2023-11-19T01:58:25;0.80;;;0.80;;
47251;SDS011;32991;51.374;11.586;2023-11-19T02:00:52;2.45;;;0.88;;
47251;SDS011;32991;51.374;11.586;2023-11-19T02:03:19;0.60;;;0.60;;
47251;SDS011;32991;51.374;11.586;2023-11-19T02:05:47;0.70;;;0.70;;
47251;SDS011;32991;51.374;11.586;2023-11-19T02:08:15;1.85;;;0.70;;
47251;SDS011;32991;51.374;11.586;2023-11-19T02:10:43;0.60;;;0.60;;
47251;SDS011;32991;51.374;11.586;2023-11-19T02:13:10;0.65;;;0.52;;
47251;SDS011;32991;51.374;11.586;2023-11-19T02:15:37;0.50;;;0.50;;
47251;SDS011;32991;51.374;11.586;2023-11-19T02:18:17;0.52;;;0.52;;
47251;SDS011;32991;51.374;11.586;2023-11-19T02:20:51;0.73;;;0.65;;
47251;SDS011;32991;51.374;11.586;2023-11-19T02:23:19;0.80;;;0.77;;
47251;SDS011;32991;51.374;11.586;2023-11-19T02:25:47;0.85;;;0.47;;
47251;SDS011;32991;51.374;11.586;2023-11-19T02:28:18;0.50;;;0.50;;
47251;SDS011;32991;51.374;11.586;2023-11-19T02:30:45;0.47;;;0.47;;
47251;SDS011;32991;51.374;11.586;2023-11-19T02:33:12;0.93;;;0.55;;
47251;SDS011;32991;51.374;11.586;2023-11-19T02:35:39;0.50;;;0.50;;
47251;SDS011;32991;51.374;11.586;2023-11-19T02:38:07;0.40;;;0.40;;
47251;SDS011;32991;51.374;11.586;2023-11-19T02:40:34;0.32;;;0.32;;
47251;SDS011;32991;51.374;11.586;2023-11-19T02:43:00;2.33;;;0.60;;
47251;SDS011;32991;51.374;11.586;2023-11-19T02:45:28;1.92;;;0.40;;
47251;SDS011;32991;51.374;11.586;2023-11-19T02:47:57;0.60;;;0.50;;
47251;SDS011;32991;51.374;11.586;2023-11-19T02:50:24;0.55;;;0.55;;
47251;SDS011;32991;51.374;11.586;2023-11-19T02:52:52;1.63;;;0.70;;
47251;SDS011;32991;51.374;11.586;2023-11-19T02:55:20;0.28;;;0.28;;
47251;SDS011;32991;51.374;11.586;2023-11-19T02:57:47;1.33;;;0.60;;
47251;SDS011;32991;51.374;11.586;2023-11-19T03:00:17;0.40;;;0.40;;
47251;SDS011;32991;51.374;11.586;2023-11-19T03:02:45;0.40;;;0.40;;
47251;SDS011;32991;51.374;11.586;2023-11-19T03:05:25;0.40;;;0.40;;
47251;SDS011;32991;51.374;11.586;2023-11-19T03:07:53;0.45;;;0.40;;
47251;SDS011;32991;51.374;11.586;2023-11-19T03:10:20;0.52;;;0.52;;
47251;SDS011;32991;51.374;11.586;2023-11-19T03:12:47;0.45;;;0.40;;
47251;SDS011;32991;51.374;11.586;2023-11-19T03:15:13;0.40;;;0.40;;
47251;SDS011;32991;51.374;11.586;2023-11-19T03:17:41;0.40;;;0.40;;
47251;SDS011;32991;51.374;11.586;2023-11-19T03:20:10;0.43;;;0.35;;
47251;SDS011;32991;51.374;11.586;2023-11-19T03:22:41;0.50;;;0.50;;
47251;SDS011;32991;51.374;11.586;2023-11-19T03:25:08;0.57;;;0.50;;
47251;SDS011;32991;51.374;11.586;2023-11-19T03:27:35;0.70;;;0.60;;
47251;SDS011;32991;51.374;11.586;2023-11-19T03:30:03;0.60;;;0.43;;
47251;SDS011;32991;51.374;11.586;2023-11-19T03:32:31;0.40;;;0.40;;
47251;SDS011;32991;51.374;11.586;2023-11-19T03:34:58;0.40;;;0.40;;
47251;SDS011;32991;51.374;11.586;2023-11-19T03:37:28;0.40;;;0.32;;
47251;SDS011;32991;51.374;11.586;2023-11-19T03:39:56;0.43;;;0.43;;
47251;SDS011;32991;51.374;11.586;2023-11-19T03:42:29;0.52;;;0.52;;
47251;SDS011;32991;51.374;11.586;2023-11-19T03:44:58;0.40;;;0.40;;
47251;SDS011;32991;51.374;11.586;2023-11-19T03:47:26;0.50;;;0.30;;
47251;SDS011;32991;51.374;11.586;2023-11-19T03:49:52;1.85;;;0.47;;
47251;SDS011;32991;51.374;11.586;2023-11-19T03:52:19;0.22;;;0.22;;
47251;SDS011;32991;51.374;11.586;2023-11-19T03:54:46;0.40;;;0.40;;
47251;SDS011;32991;51.374;11.586;2023-11-19T03:57:14;3.08;;;0.40;;
47251;SDS011;32991;51.374;11.586;2023-11-19T03:59:42;0.40;;;0.40;;
47251;SDS011;32991;51.374;11.586;2023-11-19T04:02:09;0.45;;;0.45;;
47251;SDS011;32991;51.374;11.586;2023-11-19T04:04:36;0.30;;;0.30;;
47251;SDS011;32991;51.374;11.586;2023-11-19T04:07:06;0.30;;;0.30;;
47251;SDS011;32991;51.374;11.586;2023-11-19T04:09:33;0.40;;;0.40;;
47251;SDS011;32991;51.374;11.586;2023-11-19T04:12:01;0.30;;;0.30;;
47251;SDS011;32991;51.374;11.586;2023-11-19T04:14:28;1.58;;;0.40;;
47251;SDS011;32991;51.374;11.586;2023-11-19T04:16:54;0.30;;;0.30;;
47251;SDS011;32991;51.374;11.586;2023-11-19T04:19:21;0.30;;;0.30;;
47251;SDS011;32991;51.374;11.586;2023-11-19T04:21:49;0.40;;;0.40;;
47251;SDS011;32991;51.374;11.586;2023-11-19T04:24:16;0.25;;;0.25;;
47251;SDS011;32991;51.374;11.586;2023-11-19T04:26:44;0.40;;;0.40;;
47251;SDS011;32991;51.374;11.586;2023-11-19T04:29:12;0.40;;;0.40;;
47251;SDS011;32991;51.374;11.586;2023-11-19T04:31:39;0.63;;;0.50;;
47251;SDS011;32991;51.374;11.586;2023-11-19T04:34:06;3.40;;;0.70;;
47251;SDS011;32991;51.374;11.586;2023-11-19T04:36:33;0.47;;;0.43;;
47251;SDS011;32991;51.374;11.586;2023-11-19T04:39:00;1.05;;;0.40;;
47251;SDS011;32991;51.374;11.586;2023-11-19T04:41:27;0.40;;;0.40;;
47251;SDS011;32991;51.374;11.586;2023-11-19T04:43:54;0.32;;;0.32;;
47251;SDS011;32991;51.374;11.586;2023-11-19T04:46:21;0.25;;;0.25;;
47251;SDS011;32991;51.374;11.586;2023-11-19T04:48:48;0.30;;;0.30;;
47251;SDS011;32991;51.374;11.586;2023-11-19T04:51:15;0.30;;;0.30;;
47251;SDS011;32991;51.374;11.586;2023-11-19T04:53:41;0.30;;;0.30;;
47251;SDS011;32991;51.374;11.586;2023-11-19T04:56:08;0.70;;;0.30;;
47251;SDS011;32991;51.374;11.586;2023-11-19T04:58:36;0.40;;;0.40;;
47251;SDS011;32991;51.374;11.586;2023-11-19T05:01:03;0.40;;;0.40;;
47251;SDS011;32991;51.374;11.586;2023-11-19T05:03:31;0.40;;;0.40;;
47251;SDS011;32991;51.374;11.586;2023-11-19T05:05:58;0.35;;;0.35;;
47251;SDS011;32991;51.374;11.586;2023-11-19T05:08:26;0.35;;;0.35;;
47251;SDS011;32991;51.374;11.586;2023-11-19T05:10:53;0.88;;;0.60;;
47251;SDS011;32991;51.374;11.586;2023-11-19T05:13:21;0.28;;;0.28;;
47251;SDS011;32991;51.374;11.586;2023-11-19T05:15:48;0.20;;;0.20;;
47251;SDS011;32991;51.374;11.586;2023-11-19T05:18:15;0.30;;;0.30;;
47251;SDS011;32991;51.374;11.586;2023-11-19T05:20:42;1.20;;;0.20;;
47251;SDS011;32991;51.374;11.586;2023-11-19T05:23:08;0.30;;;0.30;;
47251;SDS011;32991;51.374;11.586;2023-11-19T05:25:46;0.20;;;0.20;;
47251;SDS011;32991;51.374;11.586;2023-11-19T05:28:14;0.30;;;0.30;;
47251;SDS011;32991;51.374;11.586;2023-11-19T05:30:41;0.20;;;0.20;;
47251;SDS011;32991;51.374;11.586;2023-11-19T05:33:07;0.22;;;0.22;;
47251;SDS011;32991;51.374;11.586;2023-11-19T05:35:34;0.30;;;0.30;;
47251;SDS011;32991;51.374;11.586;2023-11-19T05:38:01;0.30;;;0.30;;
47251;SDS011;32991;51.374;11.586;2023-11-19T05:40:29;0.85;;;0.25;;
47251;SDS011;32991;51.374;11.586;2023-11-19T05:42:55;0.40;;;0.40;;
47251;SDS011;32991;51.374;11.586;2023-11-19T05:45:22;0.40;;;0.40;;
47251;SDS011;32991;51.374;11.586;2023-11-19T05:47:49;0.47;;;0.47;;
47251;SDS011;32991;51.374;11.586;2023-11-19T05:50:16;0.40;;;0.40;;
47251;SDS011;32991;51.374;11.586;2023-11-19T05:52:42;1.90;;;0.45;;
47251;SDS011;32991;51.374;11.586;2023-11-19T05:55:09;0.20;;;0.20;;
47251;SDS011;32991;51.374;11.586;2023-11-19T05:57:37;1.27;;;0.20;;
47251;SDS011;32991;51.374;11.586;2023-11-19T06:00:12;0.40;;;0.40;;
47251;SDS011;32991;51.374;11.586;2023-11-19T06:02:43;1.48;;;0.50;;
47251;SDS011;32991;51.374;11.586;2023-11-19T06:05:10;0.40;;;0.40;;
47251;SDS011;32991;51.374;11.586;2023-11-19T06:07:39;0.88;;;0.40;;
47251;SDS011;32991;51.374;11.586;2023-11-19T06:10:08;0.60;;;0.60;;
47251;SDS011;32991;51.374;11.586;2023-11-19T06:12:36;2.63;;;0.55;;
47251;SDS011;32991;51.374;11.586;2023-11-19T06:15:05;1.65;;;0.68;;
47251;SDS011;32991;51.374;11.586;2023-11-19T06:17:34;1.00;;;0.80;;
47251;SDS011;32991;51.374;11.586;2023-11-19T06:20:01;0.68;;;0.68;;
47251;SDS011;32991;51.374;11.586;2023-11-19T06:22:30;0.60;;;0.60;;
47251;SDS011;32991;51.374;11.586;2023-11-19T06:24:57;0.47;;;0.47;;
47251;SDS011;32991;51.374;11.586;2023-11-19T06:27:25;0.65;;;0.45;;
47251;SDS011;32991;51.374;11.586;2023-11-19T06:29:51;0.50;;;0.50;;
47251;SDS011;32991;51.374;11.586;2023-11-19T06:32:21;0.55;;;0.55;;
47251;SDS011;32991;51.374;11.586;2023-11-19T06:34:50;0.55;;;0.40;;
47251;SDS011;32991;51.374;11.586;2023-11-19T06:37:18;0.40;;;0.40;;
47251;SDS011;32991;51.374;11.586;2023-11-19T06:39:45;0.30;;;0.30;;
47251;SDS011;32991;51.374;11.586;2023-11-19T06:42:12;0.45;;;0.45;;
47251;SDS011;32991;51.374;11.586;2023-11-19T06:44:39;0.40;;;0.40;;
47251;SDS011;32991;51.374;11.586;2023-11-19T06:47:07;0.55;;;0.55;;
47251;SDS011;32991;51.374;11.586;2023-11-19T06:49:35;0.60;;;0.50;;
47251;SDS011;32991;51.374;11.586;2023-11-19T06:52:05;1.20;;;0.60;;
47251;SDS011;32991;51.374;11.586;2023-11-19T06:54:32;0.43;;;0.40;;
47251;SDS011;32991;51.374;11.586;2023-11-19T06:56:59;0.50;;;0.50;;
47251;SDS011;32991;51.374;11.586;2023-11-19T06:59:26;1.52;;;0.57;;
47251;SDS011;32991;51.374;11.586;2023-11-19T07:01:53;0.40;;;0.40;;
47251;SDS011;32991;51.374;11.586;2023-11-19T07:04:22;0.40;;;0.40;;
47251;SDS011;32991;51.374;11.586;2023-11-19T07:06:50;0.40;;;0.40;;
47251;SDS011;32991;51.374;11.586;2023-11-19T07:09:20;0.82;;;0.60;;
47251;SDS011;32991;51.374;11.586;2023-11-19T07:11:48;0.70;;;0.68;;
47251;SDS011;32991;51.374;11.586;2023-11-19T07:14:17;1.15;;;0.65;;
47251;SDS011;32991;51.374;11.586;2023-11-19T07:16:47;0.52;;;0.52;;
47251;SDS011;32991;51.374;11.586;2023-11-19T07:19:14;1.42;;;0.85;;
47251;SDS011;32991;51.374;11.586;2023-11-19T07:21:41;0.63;;;0.63;;
47251;SDS011;32991;51.374;11.586;2023-11-19T07:24:10;1.55;;;0.68;;
47251;SDS011;32991;51.374;11.586;2023-11-19T07:26:43;0.55;;;0.45;;
47251;SDS011;32991;51.374;11.586;2023-11-19T07:29:10;0.60;;;0.50;;
47251;SDS011;32991;51.374;11.586;2023-11-19T07:31:37;0.93;;;0.80;;
47251;SDS011;32991;51.374;11.586;2023-11-19T07:34:03;1.63;;;1.13;;
47251;SDS011;32991;51.374;11.586;2023-11-19T07:36:32;0.70;;;0.70;;
47251;SDS011;32991;51.374;11.586;2023-11-19T07:38:59;0.50;;;0.50;;
47251;SDS011;32991;51.374;11.586;2023-11-19T07:41:28;0.57;;;0.47;;
47251;SDS011;32991;51.374;11.586;2023-11-19T07:43:57;0.88;;;0.77;;
47251;SDS011;32991;51.374;11.586;2023-11-19T07:46:24;2.20;;;0.80;;
47251;SDS011;32991;51.374;11.586;2023-11-19T07:48:51;4.50;;;0.93;;
47251;SDS011;32991;51.374;11.586;2023-11-19T07:51:18;1.38;;;0.70;;
47251;SDS011;32991;51.374;11.586;2023-11-19T07:53:45;1.63;;;0.88;;
47251;SDS011;32991;51.374;11.586;2023-11-19T07:56:12;4.10;;;1.30;;
47251;SDS011;32991;51.374;11.586;2023-11-19T07:58:39;2.88;;;0.80;;
47251;SDS011;32991;51.374;11.586;2023-11-19T08:01:08;0.70;;;0.70;;
47251;SDS011;32991;51.374;11.586;2023-11-19T08:03:36;1.10;;;0.85;;
47251;SDS011;32991;51.374;11.586;2023-11-19T08:06:06;1.35;;;0.70;;
47251;SDS011;32991;51.374;11.586;2023-11-19T08:08:35;1.52;;;1.10;;
47251;SDS011;32991;51.374;11.586;2023-11-19T08:11:04;2.10;;;0.90;;
47251;SDS011;32991;51.374;11.586;2023-11-19T08:13:32;2.10;;;0.77;;
47251;SDS011;32991;51.374;11.586;2023-11-19T08:15:59;1.75;;;0.90;;
47251;SDS011;32991;51.374;11.586;2023-11-19T08:18:26;2.15;;;0.70;;
47251;SDS011;32991;51.374;11.586;2023-11-19T08:20:53;3.78;;;1.23;;
47251;SDS011;32991;51.374;11.586;2023-11-19T08:23:20;5.00;;;0.82;;
47251;SDS011;32991;51.374;11.586;2023-11-19T08:25:47;2.35;;;1.13;;
47251;SDS011;32991;51.374;11.586;2023-11-19T08:28:14;5.78;;;1.05;;
47251;SDS011;32991;51.374;11.586;2023-11-19T08:30:40;1.25;;;0.55;;
47251;SDS011;32991;51.374;11.586;2023-11-19T08:33:07;2.40;;;1.02;;
47251;SDS011;32991;51.374;11.586;2023-11-19T08:35:34;3.70;;;1.17;;
47251;SDS011;32991;51.374;11.586;2023-11-19T08:38:00;2.97;;;1.08;;
47251;SDS011;32991;51.374;11.586;2023-11-19T08:40:28;2.95;;;1.30;;
47251;SDS011;32991;51.374;11.586;2023-11-19T08:42:56;4.05;;;1.40;;
47251;SDS011;32991;51.374;11.586;2023-11-19T08:45:23;3.10;;;1.20;;
47251;SDS011;32991;51.374;11.586;2023-11-19T08:47:50;3.75;;;1.08;;
47251;SDS011;32991;51.374;11.586;2023-11-19T08:50:17;3.90;;;1.13;;
47251;SDS011;32991;51.374;11.586;2023-11-19T08:52:43;3.33;;;1.42;;
47251;SDS011;32991;51.374;11.586;2023-11-19T08:55:10;3.65;;;1.20;;
47251;SDS011;32991;51.374;11.586;2023-11-19T08:57:38;3.88;;;1.15;;
47251;SDS011;32991;51.374;11.586;2023-11-19T09:00:04;1.98;;;0.93;;
47251;SDS011;32991;51.374;11.586;2023-11-19T09:02:37;3.78;;;1.77;;
47251;SDS011;32991;51.374;11.586;2023-11-19T09:05:04;3.10;;;1.30;;
47251;SDS011;32991;51.374;11.586;2023-11-19T09:07:34;1.88;;;1.00;;
47251;SDS011;32991;51.374;11.586;2023-11-19T09:10:04;2.22;;;0.82;;
47251;SDS011;32991;51.374;11.586;2023-11-19T09:12:31;3.58;;;1.00;;
47251;SDS011;32991;51.374;11.586;2023-11-19T09:14:58;3.28;;;1.30;;
47251;SDS011;32991;51.374;11.586;2023-11-19T09:17:25;4.45;;;1.35;;
47251;SDS011;32991;51.374;11.586;2023-11-19T09:19:52;4.05;;;1.40;;
47251;SDS011;32991;51.374;11.586;2023-11-19T09:22:18;2.90;;;1.13;;
47251;SDS011;32991;51.374;11.586;2023-11-19T09:24:45;7.47;;;1.33;;
47251;SDS011;32991;51.374;11.586;2023-11-19T09:27:12;3.22;;;1.20;;
47251;SDS011;32991;51.374;11.586;2023-11-19T09:29:39;3.33;;;1.35;;
47251;SDS011;32991;51.374;11.586;2023-11-19T09:32:06;3.58;;;1.40;;
47251;SDS011;32991;51.374;11.586;2023-11-19T09:34:34;4.57;;;1.30;;
47251;SDS011;32991;51.374;11.586;2023-11-19T09:37:03;4.18;;;1.40;;
47251;SDS011;32991;51.374;11.586;2023-11-19T09:39:47;2.80;;;0.80;;
47251;SDS011;32991;51.374;11.586;2023-11-19T09:42:14;2.75;;;1.17;;
47251;SDS011;32991;51.374;11.586;2023-11-19T09:44:40;3.40;;;1.30;;
47251;SDS011;32991;51.374;11.586;2023-11-19T09:47:08;3.65;;;1.05;;
47251;SDS011;32991;51.374;11.586;2023-11-19T09:49:35;2.63;;;1.20;;
47251;SDS011;32991;51.374;11.586;2023-11-19T09:52:02;2.65;;;1.05;;
47251;SDS011;32991;51.374;11.586;2023-11-19T09:54:29;2.47;;;1.10;;
47251;SDS011;32991;51.374;11.586;2023-11-19T09:56:57;2.58;;;1.10;;
47251;SDS011;32991;51.374;11.586;2023-11-19T09:59:29;3.63;;;1.10;;
47251;SDS011;32991;51.374;11.586;2023-11-19T10:01:59;4.50;;;1.38;;
47251;SDS011;32991;51.374;11.586;2023-11-19T10:04:29;3.83;;;1.05;;
47251;SDS011;32991;51.374;11.586;2023-11-19T10:06:58;6.18;;;1.58;;
47251;SDS011;32991;51.374;11.586;2023-11-19T10:09:25;3.70;;;1.88;;
47251;SDS011;32991;51.374;11.586;2023-11-19T10:11:54;5.80;;;1.58;;
47251;SDS011;32991;51.374;11.586;2023-11-19T10:14:22;6.38;;;1.70;;
47251;SDS011;32991;51.374;11.586;2023-11-19T10:16:50;7.05;;;1.92;;
47251;SDS011;32991;51.374;11.586;2023-11-19T10:19:20;4.13;;;1.70;;
47251;SDS011;32991;51.374;11.586;2023-11-19T10:21:47;5.88;;;1.58;;
47251;SDS011;32991;51.374;11.586;2023-11-19T10:24:14;5.10;;;2.00;;
47251;SDS011;32991;51.374;11.586;2023-11-19T10:26:56;4.32;;;1.98;;
47251;SDS011;32991;51.374;11.586;2023-11-19T10:29:24;8.20;;;2.05;;
47251;SDS011;32991;51.374;11.586;2023-11-19T10:31:57;8.85;;;2.40;;
47251;SDS011;32991;51.374;11.586;2023-11-19T10:34:44;6.40;;;2.00;;
47251;SDS011;32991;51.374;11.586;2023-11-19T10:37:27;6.45;;;2.10;;
47251;SDS011;32991;51.374;11.586;2023-11-19T10:40:00;4.95;;;1.90;;
47251;SDS011;32991;51.374;11.586;2023-11-19T10:42:27;7.35;;;2.17;;
47251;SDS011;32991;51.374;11.586;2023-11-19T10:44:53;8.30;;;2.35;;
47251;SDS011;32991;51.374;11.586;2023-11-19T10:47:20;7.07;;;2.10;;
47251;SDS011;32991;51.374;11.586;2023-11-19T10:49:52;5.05;;;2.20;;
47251;SDS011;32991;51.374;11.586;2023-11-19T10:52:19;8.18;;;2.25;;
47251;SDS011;32991;51.374;11.586;2023-11-19T10:54:50;10.00;;;2.42;;
47251;SDS011;32991;51.374;11.586;2023-11-19T10:57:20;10.23;;;2.72;;
47251;SDS011;32991;51.374;11.586;2023-11-19T10:59:52;9.25;;;2.22;;
47251;SDS011;32991;51.374;11.586;2023-11-19T11:02:21;9.93;;;2.42;;
47251;SDS011;32991;51.374;11.586;2023-11-19T11:04:49;8.07;;;2.33;;
47251;SDS011;32991;51.374;11.586;2023-11-19T11:07:18;9.77;;;2.55;;
47251;SDS011;32991;51.374;11.586;2023-11-19T11:09:52;8.77;;;2.45;;
47251;SDS011;32991;51.374;11.586;2023-11-19T11:12:20;9.73;;;2.40;;
47251;SDS011;32991;51.374;11.586;2023-11-19T11:14:50;10.23;;;2.30;;
47251;SDS011;32991;51.374;11.586;2023-11-19T11:17:19;11.18;;;2.83;;
47251;SDS011;32991;51.374;11.586;2023-11-19T11:19:46;14.85;;;2.95;;
47251;SDS011;32991;51.374;11.586;2023-11-19T11:22:14;11.55;;;2.80;;
47251;SDS011;32991;51.374;11.586;2023-11-19T11:25:04;10.90;;;2.83;;
47251;SDS011;32991;51.374;11.586;2023-11-19T11:31:00;12.30;;;2.78;;
47251;SDS011;32991;51.374;11.586;2023-11-19T11:36:28;8.93;;;2.50;;
47251;SDS011;32991;51.374;11.586;2023-11-19T11:38:57;10.68;;;3.15;;
47251;SDS011;32991;51.374;11.586;2023-11-19T11:41:27;11.55;;;2.97;;
47251;SDS011;32991;51.374;11.586;2023-11-19T11:43:57;11.63;;;2.65;;
47251;SDS011;32991;51.374;11.586;2023-11-19T11:49:04;12.60;;;3.03;;
47251;SDS011;32991;51.374;11.586;2023-11-19T11:57:12;10.55;;;2.83;;
47251;SDS011;32991;51.374;11.586;2023-11-19T11:59:52;8.93;;;2.65;;
47251;SDS011;32991;51.374;11.586;2023-11-19T12:02:30;15.35;;;3.20;;
47251;SDS011;32991;51.374;11.586;2023-11-19T12:05:00;11.45;;;3.03;;
47251;SDS011;32991;51.374;11.586;2023-11-19T12:07:31;13.82;;;3.47;;
47251;SDS011;32991;51.374;11.586;2023-11-19T12:10:07;16.83;;;3.55;;
47251;SDS011;32991;51.374;11.586;2023-11-19T12:12:35;11.15;;;2.80;;
47251;SDS011;32991;51.374;11.586;2023-11-19T12:15:08;15.55;;;3.08;;
47251;SDS011;32991;51.374;11.586;2023-11-19T12:17:40;12.35;;;3.55;;
47251;SDS011;32991;51.374;11.586;2023-11-19T12:20:11;9.27;;;2.17;;
47251;SDS011;32991;51.374;11.586;2023-11-19T12:22:38;8.77;;;2.58;;
47251;SDS011;32991;51.374;11.586;2023-11-19T12:25:07;9.82;;;2.65;;
47251;SDS011;32991;51.374;11.586;2023-11-19T12:27:41;15.98;;;3.45;;
47251;SDS011;32991;51.374;11.586;2023-11-19T12:30:09;14.40;;;3.15;;
47251;SDS011;32991;51.374;11.586;2023-11-19T12:32:45;12.85;;;3.28;;
47251;SDS011;32991;51.374;11.586;2023-11-19T12:35:14;15.90;;;3.78;;
47251;SDS011;32991;51.374;11.586;2023-11-19T12:37:43;12.95;;;3.38;;
47251;SDS011;32991;51.374;11.586;2023-11-19T12:40:14;11.25;;;2.75;;
47251;SDS011;32991;51.374;11.586;2023-11-19T12:42:54;13.90;;;3.30;;
47251;SDS011;32991;51.374;11.586;2023-11-19T12:47:50;11.68;;;2.90;;
47251;SDS011;32991;51.374;11.586;2023-11-19T12:53:24;8.25;;;2.40;;
47251;SDS011;32991;51.374;11.586;2023-11-19T12:55:52;14.05;;;3.13;;
47251;SDS011;32991;51.374;11.586;2023-11-19T12:58:29;13.50;;;3.38;;
47251;SDS011;32991;51.374;11.586;2023-11-19T13:01:02;8.55;;;2.50;;
47251;SDS011;32991;51.374;11.586;2023-11-19T13:03:34;11.73;;;2.80;;
47251;SDS011;32991;51.374;11.586;2023-11-19T13:06:06;12.40;;;3.00;;
47251;SDS011;32991;51.374;11.586;2023-11-19T13:08:38;11.75;;;3.30;;
47251;SDS011;32991;51.374;11.586;2023-11-19T13:11:31;12.90;;;2.80;;
47251;SDS011;32991;51.374;11.586;2023-11-19T13:14:02;15.25;;;3.00;;
47251;SDS011;32991;51.374;11.586;2023-11-19T13:16:36;9.20;;;2.67;;
47251;SDS011;32991;51.374;11.586;2023-11-19T13:19:07;15.27;;;3.38;;
47251;SDS011;32991;51.374;11.586;2023-11-19T13:21:35;12.30;;;2.90;;
47251;SDS011;32991;51.374;11.586;2023-11-19T13:24:03;9.95;;;2.95;;
47251;SDS011;32991;51.374;11.586;2023-11-19T13:26:30;11.73;;;3.28;;
47251;SDS011;32991;51.374;11.586;2023-11-19T13:28:56;16.77;;;2.85;;
47251;SDS011;32991;51.374;11.586;2023-11-19T13:31:23;15.45;;;4.22;;
47251;SDS011;32991;51.374;11.586;2023-11-19T13:33:50;13.93;;;3.20;;
47251;SDS011;32991;51.374;11.586;2023-11-19T13:36:17;15.93;;;4.15;;
47251;SDS011;32991;51.374;11.586;2023-11-19T13:38:44;16.17;;;3.53;;
47251;SDS011;32991;51.374;11.586;2023-11-19T13:41:11;15.48;;;3.85;;
47251;SDS011;32991;51.374;11.586;2023-11-19T13:43:39;13.50;;;3.60;;
47251;SDS011;32991;51.374;11.586;2023-11-19T13:46:06;14.60;;;3.50;;
47251;SDS011;32991;51.374;11.586;2023-11-19T13:48:33;8.95;;;1.83;;
47251;SDS011;32991;51.374;11.586;2023-11-19T13:51:00;14.88;;;3.47;;
47251;SDS011;32991;51.374;11.586;2023-11-19T13:53:26;11.82;;;3.55;;
47251;SDS011;32991;51.374;11.586;2023-11-19T13:55:53;10.15;;;3.40;;
47251;SDS011;32991;51.374;11.586;2023-11-19T13:58:20;16.95;;;3.33;;
47251;SDS011;32991;51.374;11.586;2023-11-19T14:00:47;16.40;;;3.30;;
47251;SDS011;32991;51.374;11.586;2023-11-19T14:03:14;17.63;;;3.42;;
47251;SDS011;32991;51.374;11.586;2023-11-19T14:06:00;14.35;;;3.30;;
47251;SDS011;32991;51.374;11.586;2023-11-19T14:08:27;12.70;;;3.47;;
47251;SDS011;32991;51.374;11.586;2023-11-19T14:10:54;14.55;;;3.55;;
47251;SDS011;32991;51.374;11.586;2023-11-19T14:13:23;13.27;;;3.28;;
47251;SDS011;32991;51.374;11.586;2023-11-19T14:15:50;15.60;;;2.83;;
47251;SDS011;32991;51.374;11.586;2023-11-19T14:18:17;14.18;;;2.40;;
47251;SDS011;32991;51.374;11.586;2023-11-19T14:20:44;16.50;;;3.38;;
47251;SDS011;32991;51.374;11.586;2023-11-19T14:23:13;15.52;;;3.47;;
47251;SDS011;32991;51.374;11.586;2023-11-19T14:25:39;12.60;;;3.25;;
47251;SDS011;32991;51.374;11.586;2023-11-19T14:28:06;16.90;;;2.78;;
47251;SDS011;32991;51.374;11.586;2023-11-19T14:30:34;13.32;;;2.17;;
47251;SDS011;32991;51.374;11.586;2023-11-19T14:33:01;15.68;;;4.43;;
47251;SDS011;32991;51.374;11.586;2023-11-19T14:35:28;14.73;;;4.97;;
47251;SDS011;32991;51.374;11.586;2023-11-19T14:37:57;14.30;;;3.33;;
47251;SDS011;32991;51.374;11.586;2023-11-19T14:40:24;16.98;;;3.85;;
47251;SDS011;32991;51.374;11.586;2023-11-19T14:43:08;10.02;;;2.80;;
47251;SDS011;32991;51.374;11.586;2023-11-19T14:45:38;14.00;;;3.65;;
47251;SDS011;32991;51.374;11.586;2023-11-19T14:48:15;16.00;;;2.92;;
47251;SDS011;32991;51.374;11.586;2023-11-19T14:50:42;16.23;;;3.65;;
47251;SDS011;32991;51.374;11.586;2023-11-19T14:53:08;15.38;;;3.47;;
47251;SDS011;32991;51.374;11.586;2023-11-19T14:55:36;17.30;;;5.68;;
47251;SDS011;32991;51.374;11.586;2023-11-19T14:58:02;13.35;;;3.70;;
47251;SDS011;32991;51.374;11.586;2023-11-19T15:00:36;10.73;;;2.53;;